SIN weather

Singapore Changi Airport
Singapore, South East, Singapore

Public forecast

Using degrees Celsius for public forecast. Weather courtesy of forecast.io.

METAR (pilot weather report)

Retrieved 2017/05/28 23:30 UTC (25 minutes ago):

WSSS 282330Z 22003KT 170V250 9999 FEW016 BKN150 28/25 Q1008 NOSIG

TAF (pilot weather forecast)

Retrieved 2017/05/28 18:10 UTC (6 hours ago):

TAF WSSS 281700Z 2818/3000 16008KT 9999 FEW018CB SCT020 TEMPO 2901/2905 3000 TSRA FEW012CB BKN015